<?xml version="1.0" encoding="UTF-8"?>
<gpx version="1.1" creator="2bulu-scraper" xmlns="http://www.topografix.com/GPX/1/1">
  <metadata><name>昭通彝良县到盐津县</name><desc>source: 2bulu.com trackId=87086014; exported 2026-09-01T18:38:50.458Z</desc>
    <bounds minlat="27.8109205" minlon="104.2648766" maxlat="27.8343468" maxlon="104.2733074"/>
    <link href="https://www.2bulu.com/track/t-lziBxw5A4p7p%252FR2KBg5Tzw%253D%253D.htm"><text>2bulu 源页面</text></link>
  </metadata>
  <wpt lat="27.8116119" lon="104.2648872"><ele>1873</ele><name>
        </name></wpt>
  <wpt lat="27.8115537" lon="104.2649752"><ele>1874</ele><name>
        </name></wpt>
  <wpt lat="27.8115416" lon="104.2649293"><ele>1875</ele><name>
        </name></wpt>
  <wpt lat="27.8141925" lon="104.2681811"><ele>1880</ele><name>
        </name></wpt>
  <wpt lat="27.8140974" lon="104.2681733"><ele>1880</ele><name>
        </name></wpt>
  <wpt lat="27.8140974" lon="104.2681733"><ele>1880</ele><name>
        </name></wpt>
  <wpt lat="27.8177505" lon="104.2712216"><ele>1896</ele><name>
        </name></wpt>
  <wpt lat="27.8177505" lon="104.2712216"><ele>1896</ele><name>
        </name></wpt>
  <wpt lat="27.8175653" lon="104.2712472"><ele>1896</ele><name>
        </name></wpt>
  <wpt lat="27.8175653" lon="104.2712472"><ele>1896</ele><name>
        </name></wpt>
  <wpt lat="27.8213673" lon="104.270006"><ele>1900</ele><name>
        </name></wpt>
  <wpt lat="27.8214224" lon="104.2699313"><ele>1900</ele><name>
        </name></wpt>
  <wpt lat="27.8214046" lon="104.2699543"><ele>1900</ele><name>
        </name></wpt>
  <wpt lat="27.8214042" lon="104.2699568"><ele>1900</ele><name>
        </name></wpt>
  <wpt lat="27.8269119" lon="104.2713622"><ele>1848</ele><name>
        </name></wpt>
  <wpt lat="27.8269189" lon="104.2713841"><ele>1849</ele><name>
        </name></wpt>
  <wpt lat="27.8269135" lon="104.2714265"><ele>1847</ele><name>
        </name></wpt>
  <wpt lat="27.8301445" lon="104.2726879"><ele>1812</ele><name>
        </name></wpt>
  <wpt lat="27.8301145" lon="104.2726785"><ele>1811</ele><name>
        </name></wpt>
  <wpt lat="27.8302178" lon="104.2726952"><ele>1814</ele><name>
        </name></wpt>
  <wpt lat="27.8342839" lon="104.2731671"><ele>1788</ele><name>
        </name></wpt>
  <wpt lat="27.8343468" lon="104.2731368"><ele>1783</ele><name>
        </name></wpt>
  <wpt lat="27.8342907" lon="104.2731779"><ele>1784</ele><name>
        </name></wpt>
  <wpt lat="27.8342906" lon="104.2731779"><ele>1784</ele><name>
        </name></wpt>
  <trk><name>昭通彝良县到盐津县</name>
      <trkseg>
        <trkpt lat="27.8112527" lon="104.2666253"><ele>1872.77</ele><time>2026-07-13T18:32:13.000Z</time></trkpt>
        <trkpt lat="27.8111769" lon="104.2665681"><ele>1872.77</ele><time>2026-07-13T18:32:41.000Z</time></trkpt>
        <trkpt lat="27.8110901" lon="104.2665"><ele>1873.09</ele><time>2026-07-13T18:32:51.000Z</time></trkpt>
        <trkpt lat="27.8110152" lon="104.2664332"><ele>1873.81</ele><time>2026-07-13T18:32:59.000Z</time></trkpt>
        <trkpt lat="27.8109205" lon="104.2663894"><ele>1873.8</ele><time>2026-07-13T18:33:07.000Z</time></trkpt>
        <trkpt lat="27.8109376" lon="104.2663018"><ele>1873.59</ele><time>2026-07-13T18:33:25.000Z</time></trkpt>
        <trkpt lat="27.8109836" lon="104.2662022"><ele>1873.37</ele><time>2026-07-13T18:33:35.000Z</time></trkpt>
        <trkpt lat="27.8110787" lon="104.2661606"><ele>1873.09</ele><time>2026-07-13T18:33:45.000Z</time></trkpt>
        <trkpt lat="27.8111862" lon="104.2661847"><ele>1871.28</ele><time>2026-07-13T18:33:57.000Z</time></trkpt>
        <trkpt lat="27.8112877" lon="104.2661996"><ele>1869.68</ele><time>2026-07-13T18:34:09.000Z</time></trkpt>
        <trkpt lat="27.811361" lon="104.2661475"><ele>1869.24</ele><time>2026-07-13T18:34:35.000Z</time></trkpt>
        <trkpt lat="27.8113933" lon="104.2660518"><ele>1869.27</ele><time>2026-07-13T18:34:57.000Z</time></trkpt>
        <trkpt lat="27.8114306" lon="104.2659493"><ele>1870.04</ele><time>2026-07-13T18:35:09.000Z</time></trkpt>
        <trkpt lat="27.8114085" lon="104.2658444"><ele>1870.27</ele><time>2026-07-13T18:35:23.000Z</time></trkpt>
        <trkpt lat="27.8114061" lon="104.265732"><ele>1870.87</ele><time>2026-07-13T18:35:45.000Z</time></trkpt>
        <trkpt lat="27.8114269" lon="104.2656178"><ele>1870.79</ele><time>2026-07-13T18:36:01.000Z</time></trkpt>
        <trkpt lat="27.8114547" lon="104.2655114"><ele>1870.93</ele><time>2026-07-13T18:36:19.000Z</time></trkpt>
        <trkpt lat="27.8115159" lon="104.2654212"><ele>1871.01</ele><time>2026-07-13T18:36:37.000Z</time></trkpt>
        <trkpt lat="27.8115684" lon="104.2653277"><ele>1871.11</ele><time>2026-07-13T18:36:51.000Z</time></trkpt>
        <trkpt lat="27.8116262" lon="104.2652379"><ele>1871.34</ele><time>2026-07-13T18:37:23.000Z</time></trkpt>
        <trkpt lat="27.8116364" lon="104.2651365"><ele>1871.58</ele><time>2026-07-13T18:37:39.000Z</time></trkpt>
        <trkpt lat="27.8115727" lon="104.2650726"><ele>1871.89</ele><time>2026-07-13T18:38:11.000Z</time></trkpt>
        <trkpt lat="27.8115374" lon="104.2649823"><ele>1872.26</ele><time>2026-07-13T18:38:37.000Z</time></trkpt>
        <trkpt lat="27.8115149" lon="104.2648766"><ele>1872.65</ele><time>2026-07-13T18:42:59.000Z</time></trkpt>
        <trkpt lat="27.8116119" lon="104.2648872"><ele>1872.84</ele><time>2026-07-13T18:43:49.000Z</time></trkpt>
        <trkpt lat="27.8115537" lon="104.2649752"><ele>1872.72</ele><time>2026-07-13T18:45:35.000Z</time></trkpt>
        <trkpt lat="27.8115122" lon="104.26508"><ele>1873.34</ele><time>2026-07-13T18:48:41.000Z</time></trkpt>
        <trkpt lat="27.8114929" lon="104.2651806"><ele>1873.23</ele><time>2026-07-13T18:48:53.000Z</time></trkpt>
        <trkpt lat="27.8114897" lon="104.2652858"><ele>1873.31</ele><time>2026-07-13T18:49:05.000Z</time></trkpt>
        <trkpt lat="27.81156" lon="104.2653442"><ele>1873.64</ele><time>2026-07-13T18:49:17.000Z</time></trkpt>
        <trkpt lat="27.8115549" lon="104.2654272"><ele>1873.28</ele><time>2026-07-13T18:49:33.000Z</time></trkpt>
        <trkpt lat="27.8115047" lon="104.2655048"><ele>1873.09</ele><time>2026-07-13T18:49:43.000Z</time></trkpt>
        <trkpt lat="27.8114514" lon="104.2656063"><ele>1872.5</ele><time>2026-07-13T18:49:55.000Z</time></trkpt>
        <trkpt lat="27.8114251" lon="104.2657144"><ele>1873.32</ele><time>2026-07-13T18:50:09.000Z</time></trkpt>
        <trkpt lat="27.8113743" lon="104.2658014"><ele>1873.43</ele><time>2026-07-13T18:50:25.000Z</time></trkpt>
        <trkpt lat="27.8113904" lon="104.2659029"><ele>1873.44</ele><time>2026-07-13T18:50:39.000Z</time></trkpt>
        <trkpt lat="27.8113937" lon="104.2660056"><ele>1872.37</ele><time>2026-07-13T18:50:51.000Z</time></trkpt>
        <trkpt lat="27.8113663" lon="104.2661109"><ele>1872.39</ele><time>2026-07-13T18:51:05.000Z</time></trkpt>
        <trkpt lat="27.8113289" lon="104.2662169"><ele>1871.78</ele><time>2026-07-13T18:51:21.000Z</time></trkpt>
        <trkpt lat="27.8113009" lon="104.2663291"><ele>1871.44</ele><time>2026-07-13T18:51:33.000Z</time></trkpt>
        <trkpt lat="27.8112853" lon="104.2663979"><ele>1871.82</ele><time>2026-07-13T18:51:41.000Z</time></trkpt>
        <trkpt lat="27.8112676" lon="104.2664873"><ele>1871.76</ele><time>2026-07-13T18:51:57.000Z</time></trkpt>
        <trkpt lat="27.8112688" lon="104.2665927"><ele>1871.83</ele><time>2026-07-13T18:52:15.000Z</time></trkpt>
        <trkpt lat="27.8113652" lon="104.2666704"><ele>1873.43</ele><time>2026-07-13T18:54:57.000Z</time></trkpt>
        <trkpt lat="27.8117133" lon="104.2669885"><ele>1873.1</ele><time>2026-07-13T18:55:05.000Z</time></trkpt>
        <trkpt lat="27.8118263" lon="104.2671378"><ele>1873.44</ele><time>2026-07-13T18:55:07.000Z</time></trkpt>
        <trkpt lat="27.8119008" lon="104.2672585"><ele>1873.59</ele><time>2026-07-13T18:55:09.000Z</time></trkpt>
        <trkpt lat="27.8119625" lon="104.2673672"><ele>1873.73</ele><time>2026-07-13T18:55:11.000Z</time></trkpt>
        <trkpt lat="27.8120223" lon="104.2674749"><ele>1873.94</ele><time>2026-07-13T18:55:13.000Z</time></trkpt>
        <trkpt lat="27.8120899" lon="104.2675802"><ele>1874.12</ele><time>2026-07-13T18:55:15.000Z</time></trkpt>
        <trkpt lat="27.812171" lon="104.267675"><ele>1874.39</ele><time>2026-07-13T18:55:17.000Z</time></trkpt>
        <trkpt lat="27.8122689" lon="104.2677552"><ele>1874.73</ele><time>2026-07-13T18:55:19.000Z</time></trkpt>
        <trkpt lat="27.8123732" lon="104.267834"><ele>1875.11</ele><time>2026-07-13T18:55:21.000Z</time></trkpt>
        <trkpt lat="27.8124815" lon="104.267913"><ele>1875.23</ele><time>2026-07-13T18:55:23.000Z</time></trkpt>
        <trkpt lat="27.8125883" lon="104.2679938"><ele>1875.41</ele><time>2026-07-13T18:55:25.000Z</time></trkpt>
        <trkpt lat="27.8126988" lon="104.268065"><ele>1875.78</ele><time>2026-07-13T18:55:27.000Z</time></trkpt>
        <trkpt lat="27.8128156" lon="104.2681151"><ele>1876.39</ele><time>2026-07-13T18:55:29.000Z</time></trkpt>
        <trkpt lat="27.8129343" lon="104.2681416"><ele>1877.2</ele><time>2026-07-13T18:55:31.000Z</time></trkpt>
        <trkpt lat="27.8130579" lon="104.268156"><ele>1877.83</ele><time>2026-07-13T18:55:33.000Z</time></trkpt>
        <trkpt lat="27.8131844" lon="104.2681681"><ele>1878.22</ele><time>2026-07-13T18:55:35.000Z</time></trkpt>
        <trkpt lat="27.8133161" lon="104.2681877"><ele>1878.42</ele><time>2026-07-13T18:55:37.000Z</time></trkpt>
        <trkpt lat="27.8134448" lon="104.2682215"><ele>1878.54</ele><time>2026-07-13T18:55:39.000Z</time></trkpt>
        <trkpt lat="27.8135616" lon="104.2682749"><ele>1878.73</ele><time>2026-07-13T18:55:41.000Z</time></trkpt>
        <trkpt lat="27.813663" lon="104.268358"><ele>1878.99</ele><time>2026-07-13T18:55:43.000Z</time></trkpt>
        <trkpt lat="27.8137236" lon="104.2684741"><ele>1879.08</ele><time>2026-07-13T18:55:45.000Z</time></trkpt>
        <trkpt lat="27.8137335" lon="104.2686111"><ele>1879.09</ele><time>2026-07-13T18:55:47.000Z</time></trkpt>
        <trkpt lat="27.8137276" lon="104.2687502"><ele>1879.14</ele><time>2026-07-13T18:55:49.000Z</time></trkpt>
        <trkpt lat="27.8137223" lon="104.26888"><ele>1879.29</ele><time>2026-07-13T18:55:51.000Z</time></trkpt>
        <trkpt lat="27.8137152" lon="104.2690012"><ele>1879.53</ele><time>2026-07-13T18:55:53.000Z</time></trkpt>
        <trkpt lat="27.8136909" lon="104.269115"><ele>1880.12</ele><time>2026-07-13T18:55:55.000Z</time></trkpt>
        <trkpt lat="27.8136268" lon="104.2692093"><ele>1880.79</ele><time>2026-07-13T18:55:57.000Z</time></trkpt>
        <trkpt lat="27.8135324" lon="104.2692806"><ele>1881.53</ele><time>2026-07-13T18:55:59.000Z</time></trkpt>
        <trkpt lat="27.8134227" lon="104.2693433"><ele>1882.06</ele><time>2026-07-13T18:56:01.000Z</time></trkpt>
        <trkpt lat="27.8133145" lon="104.2694123"><ele>1882.73</ele><time>2026-07-13T18:56:03.000Z</time></trkpt>
        <trkpt lat="27.8132234" lon="104.2694946"><ele>1883.38</ele><time>2026-07-13T18:56:05.000Z</time></trkpt>
        <trkpt lat="27.8131547" lon="104.2695931"><ele>1884.08</ele><time>2026-07-13T18:56:07.000Z</time></trkpt>
        <trkpt lat="27.8131028" lon="104.2697023"><ele>1884.88</ele><time>2026-07-13T18:56:09.000Z</time></trkpt>
        <trkpt lat="27.8130601" lon="104.2698099"><ele>1885.97</ele><time>2026-07-13T18:56:11.000Z</time></trkpt>
        <trkpt lat="27.8130178" lon="104.2699244"><ele>1886.73</ele><time>2026-07-13T18:56:13.000Z</time></trkpt>
        <trkpt lat="27.8129739" lon="104.2700368"><ele>1887.47</ele><time>2026-07-13T18:56:15.000Z</time></trkpt>
        <trkpt lat="27.8129291" lon="104.2701738"><ele>1888.31</ele><time>2026-07-13T18:56:19.000Z</time></trkpt>
        <trkpt lat="27.8129533" lon="104.2703218"><ele>1888.93</ele><time>2026-07-13T18:56:23.000Z</time></trkpt>
        <trkpt lat="27.8130336" lon="104.2704722"><ele>1888.51</ele><time>2026-07-13T18:56:27.000Z</time></trkpt>
        <trkpt lat="27.8131716" lon="104.270566"><ele>1887.88</ele><time>2026-07-13T18:56:31.000Z</time></trkpt>
        <trkpt lat="27.8133493" lon="104.2705166"><ele>1887.61</ele><time>2026-07-13T18:56:35.000Z</time></trkpt>
        <trkpt lat="27.81348" lon="104.27045"><ele>1887.04</ele><time>2026-07-13T18:56:37.000Z</time></trkpt>
        <trkpt lat="27.8135977" lon="104.2703869"><ele>1886.53</ele><time>2026-07-13T18:56:39.000Z</time></trkpt>
        <trkpt lat="27.8137067" lon="104.2703348"><ele>1885.95</ele><time>2026-07-13T18:56:41.000Z</time></trkpt>
        <trkpt lat="27.8138061" lon="104.2702976"><ele>1885.57</ele><time>2026-07-13T18:56:43.000Z</time></trkpt>
        <trkpt lat="27.8139485" lon="104.2702935"><ele>1885.3</ele><time>2026-07-13T18:56:47.000Z</time></trkpt>
        <trkpt lat="27.8140437" lon="104.270366"><ele>1885.19</ele><time>2026-07-13T18:56:51.000Z</time></trkpt>
        <trkpt lat="27.8140636" lon="104.2703943"><ele>1885.03</ele><time>2026-07-13T18:56:53.000Z</time></trkpt>
        <trkpt lat="27.8141259" lon="104.2703862"><ele>1884.89</ele><time>2026-07-13T18:57:51.000Z</time></trkpt>
        <trkpt lat="27.8142226" lon="104.2703866"><ele>1884.37</ele><time>2026-07-13T18:58:01.000Z</time></trkpt>
        <trkpt lat="27.8143288" lon="104.2704218"><ele>1883.82</ele><time>2026-07-13T18:58:11.000Z</time></trkpt>
        <trkpt lat="27.81439" lon="104.2703607"><ele>1883.14</ele><time>2026-07-13T18:58:35.000Z</time></trkpt>
        <trkpt lat="27.8144493" lon="104.270267"><ele>1883.57</ele><time>2026-07-13T18:59:15.000Z</time></trkpt>
        <trkpt lat="27.8144377" lon="104.2701474"><ele>1884.18</ele><time>2026-07-13T18:59:35.000Z</time></trkpt>
        <trkpt lat="27.8144318" lon="104.270075"><ele>1885.05</ele><time>2026-07-13T18:59:43.000Z</time></trkpt>
        <trkpt lat="27.8143793" lon="104.2699935"><ele>1885.84</ele><time>2026-07-13T19:00:13.000Z</time></trkpt>
        <trkpt lat="27.8143062" lon="104.2699233"><ele>1889.74</ele><time>2026-07-13T19:00:33.000Z</time></trkpt>
        <trkpt lat="27.8142278" lon="104.269856"><ele>1891.37</ele><time>2026-07-13T19:00:55.000Z</time></trkpt>
        <trkpt lat="27.8142372" lon="104.269771"><ele>1893.13</ele><time>2026-07-13T19:01:25.000Z</time></trkpt>
        <trkpt lat="27.8142713" lon="104.2696769"><ele>1894.15</ele><time>2026-07-13T19:01:43.000Z</time></trkpt>
        <trkpt lat="27.8143588" lon="104.2696306"><ele>1895.65</ele><time>2026-07-13T19:01:55.000Z</time></trkpt>
        <trkpt lat="27.8144399" lon="104.269564"><ele>1896.62</ele><time>2026-07-13T19:02:49.000Z</time></trkpt>
        <trkpt lat="27.814524" lon="104.2694933"><ele>1897.3</ele><time>2026-07-13T19:03:03.000Z</time></trkpt>
        <trkpt lat="27.8145611" lon="104.2693996"><ele>1897.67</ele><time>2026-07-13T19:03:21.000Z</time></trkpt>
        <trkpt lat="27.8146177" lon="104.2693221"><ele>1897.6</ele><time>2026-07-13T19:03:37.000Z</time></trkpt>
        <trkpt lat="27.8146459" lon="104.2692205"><ele>1896.62</ele><time>2026-07-13T19:03:53.000Z</time></trkpt>
        <trkpt lat="27.8146992" lon="104.2691273"><ele>1896.18</ele><time>2026-07-13T19:04:17.000Z</time></trkpt>
        <trkpt lat="27.8147587" lon="104.2690429"><ele>1895.27</ele><time>2026-07-13T19:04:51.000Z</time></trkpt>
        <trkpt lat="27.8147842" lon="104.2689425"><ele>1894.62</ele><time>2026-07-13T19:05:11.000Z</time></trkpt>
        <trkpt lat="27.814793" lon="104.2688953"><ele>1894.24</ele><time>2026-07-13T19:05:35.000Z</time></trkpt>
        <trkpt lat="27.8147332" lon="104.268849"><ele>1892.92</ele><time>2026-07-13T19:06:13.000Z</time></trkpt>
        <trkpt lat="27.8146567" lon="104.2687796"><ele>1892.78</ele><time>2026-07-13T19:06:47.000Z</time></trkpt>
        <trkpt lat="27.8145542" lon="104.2687407"><ele>1891.58</ele><time>2026-07-13T19:07:39.000Z</time></trkpt>
        <trkpt lat="27.8145481" lon="104.2686582"><ele>1886.72</ele><time>2026-07-13T19:07:57.000Z</time></trkpt>
        <trkpt lat="27.8144934" lon="104.2685858"><ele>1883.74</ele><time>2026-07-13T19:08:41.000Z</time></trkpt>
        <trkpt lat="27.8144381" lon="104.2685034"><ele>1881.98</ele><time>2026-07-13T19:09:09.000Z</time></trkpt>
        <trkpt lat="27.8143832" lon="104.2684097"><ele>1881.65</ele><time>2026-07-13T19:09:57.000Z</time></trkpt>
        <trkpt lat="27.8143269" lon="104.2683208"><ele>1881.02</ele><time>2026-07-13T19:10:15.000Z</time></trkpt>
        <trkpt lat="27.8142482" lon="104.2682627"><ele>1880.7</ele><time>2026-07-13T19:10:37.000Z</time></trkpt>
        <trkpt lat="27.8141925" lon="104.2681811"><ele>1880.11</ele><time>2026-07-13T19:11:17.000Z</time></trkpt>
        <trkpt lat="27.8142754" lon="104.2681297"><ele>1879.85</ele><time>2026-07-13T19:13:21.000Z</time></trkpt>
        <trkpt lat="27.8142448" lon="104.2682343"><ele>1878.67</ele><time>2026-07-13T19:14:25.000Z</time></trkpt>
        <trkpt lat="27.8141611" lon="104.2682898"><ele>1877.35</ele><time>2026-07-13T19:15:01.000Z</time></trkpt>
        <trkpt lat="27.8141154" lon="104.268216"><ele>1877.8</ele><time>2026-07-13T19:15:21.000Z</time></trkpt>
        <trkpt lat="27.8140974" lon="104.2681733"><ele>1878.06</ele><time>2026-07-13T19:15:27.000Z</time></trkpt>
        <trkpt lat="27.8141731" lon="104.2682522"><ele>1878.85</ele><time>2026-07-13T19:17:13.000Z</time></trkpt>
        <trkpt lat="27.814094" lon="104.2683061"><ele>1879.16</ele><time>2026-07-13T19:19:05.000Z</time></trkpt>
        <trkpt lat="27.8140155" lon="104.2682485"><ele>1878.72</ele><time>2026-07-13T19:19:21.000Z</time></trkpt>
        <trkpt lat="27.8139701" lon="104.2683257"><ele>1877.4</ele><time>2026-07-13T19:19:55.000Z</time></trkpt>
        <trkpt lat="27.8139533" lon="104.2684357"><ele>1876.9</ele><time>2026-07-13T19:20:09.000Z</time></trkpt>
        <trkpt lat="27.8139611" lon="104.2685531"><ele>1876.28</ele><time>2026-07-13T19:20:23.000Z</time></trkpt>
        <trkpt lat="27.813968" lon="104.268669"><ele>1876.22</ele><time>2026-07-13T19:20:37.000Z</time></trkpt>
        <trkpt lat="27.8139742" lon="104.2687873"><ele>1876.56</ele><time>2026-07-13T19:20:53.000Z</time></trkpt>
        <trkpt lat="27.8139748" lon="104.2688969"><ele>1877.59</ele><time>2026-07-13T19:21:11.000Z</time></trkpt>
        <trkpt lat="27.8139599" lon="104.2690168"><ele>1877.69</ele><time>2026-07-13T19:21:25.000Z</time></trkpt>
        <trkpt lat="27.8139414" lon="104.2691284"><ele>1877.83</ele><time>2026-07-13T19:21:37.000Z</time></trkpt>
        <trkpt lat="27.8138804" lon="104.2692184"><ele>1877.67</ele><time>2026-07-13T19:21:51.000Z</time></trkpt>
        <trkpt lat="27.8137938" lon="104.2692137"><ele>1879.14</ele><time>2026-07-13T19:22:03.000Z</time></trkpt>
        <trkpt lat="27.813692" lon="104.2691844"><ele>1879.39</ele><time>2026-07-13T19:22:17.000Z</time></trkpt>
        <trkpt lat="27.8136038" lon="104.269215"><ele>1880.54</ele><time>2026-07-13T19:22:33.000Z</time></trkpt>
        <trkpt lat="27.8135187" lon="104.269262"><ele>1881.35</ele><time>2026-07-13T19:22:43.000Z</time></trkpt>
        <trkpt lat="27.8134338" lon="104.2693178"><ele>1881.85</ele><time>2026-07-13T19:22:53.000Z</time></trkpt>
        <trkpt lat="27.8133502" lon="104.269375"><ele>1881.95</ele><time>2026-07-13T19:23:03.000Z</time></trkpt>
        <trkpt lat="27.813271" lon="104.2694348"><ele>1882.51</ele><time>2026-07-13T19:23:13.000Z</time></trkpt>
        <trkpt lat="27.8131989" lon="104.2695228"><ele>1883.28</ele><time>2026-07-13T19:23:23.000Z</time></trkpt>
        <trkpt lat="27.8131446" lon="104.2696309"><ele>1884.02</ele><time>2026-07-13T19:23:33.000Z</time></trkpt>
        <trkpt lat="27.8131018" lon="104.2697434"><ele>1885.53</ele><time>2026-07-13T19:23:43.000Z</time></trkpt>
        <trkpt lat="27.8130636" lon="104.2698544"><ele>1886.42</ele><time>2026-07-13T19:23:53.000Z</time></trkpt>
        <trkpt lat="27.8130318" lon="104.2699604"><ele>1887.21</ele><time>2026-07-13T19:24:03.000Z</time></trkpt>
        <trkpt lat="27.8129902" lon="104.2700682"><ele>1887.32</ele><time>2026-07-13T19:24:13.000Z</time></trkpt>
        <trkpt lat="27.8129346" lon="104.270167"><ele>1887.18</ele><time>2026-07-13T19:24:23.000Z</time></trkpt>
        <trkpt lat="27.8129287" lon="104.270201"><ele>1886.52</ele><time>2026-07-13T19:24:25.000Z</time></trkpt>
        <trkpt lat="27.8129504" lon="104.2702936"><ele>1885.79</ele><time>2026-07-13T19:24:47.000Z</time></trkpt>
        <trkpt lat="27.8129819" lon="104.2703961"><ele>1885.52</ele><time>2026-07-13T19:24:55.000Z</time></trkpt>
        <trkpt lat="27.8130543" lon="104.2704903"><ele>1885.43</ele><time>2026-07-13T19:25:05.000Z</time></trkpt>
        <trkpt lat="27.8131578" lon="104.2705392"><ele>1884.82</ele><time>2026-07-13T19:25:15.000Z</time></trkpt>
        <trkpt lat="27.8132722" lon="104.2705218"><ele>1884.35</ele><time>2026-07-13T19:25:25.000Z</time></trkpt>
        <trkpt lat="27.8133724" lon="104.2704816"><ele>1883.89</ele><time>2026-07-13T19:25:33.000Z</time></trkpt>
        <trkpt lat="27.8134656" lon="104.2704336"><ele>1883.17</ele><time>2026-07-13T19:25:41.000Z</time></trkpt>
        <trkpt lat="27.8135577" lon="104.2703897"><ele>1882.75</ele><time>2026-07-13T19:25:49.000Z</time></trkpt>
        <trkpt lat="27.8136497" lon="104.2703501"><ele>1882.1</ele><time>2026-07-13T19:25:57.000Z</time></trkpt>
        <trkpt lat="27.8137447" lon="104.2703206"><ele>1881.92</ele><time>2026-07-13T19:26:05.000Z</time></trkpt>
        <trkpt lat="27.8138515" lon="104.2703196"><ele>1882.96</ele><time>2026-07-13T19:26:15.000Z</time></trkpt>
        <trkpt lat="27.813909" lon="104.2703719"><ele>1883.83</ele><time>2026-07-13T19:26:23.000Z</time></trkpt>
        <trkpt lat="27.8139958" lon="104.2703819"><ele>1883.7</ele><time>2026-07-13T19:30:57.000Z</time></trkpt>
        <trkpt lat="27.8141015" lon="104.2703753"><ele>1883.9</ele><time>2026-07-13T19:31:09.000Z</time></trkpt>
        <trkpt lat="27.8141951" lon="104.2703788"><ele>1884.87</ele><time>2026-07-13T19:31:21.000Z</time></trkpt>
        <trkpt lat="27.8142909" lon="104.2703979"><ele>1885.7</ele><time>2026-07-13T19:31:35.000Z</time></trkpt>
        <trkpt lat="27.814372" lon="104.2704672"><ele>1886.03</ele><time>2026-07-13T19:31:47.000Z</time></trkpt>
        <trkpt lat="27.8144149" lon="104.2705662"><ele>1886.06</ele><time>2026-07-13T19:31:59.000Z</time></trkpt>
        <trkpt lat="27.8144455" lon="104.2706733"><ele>1887</ele><time>2026-07-13T19:32:13.000Z</time></trkpt>
        <trkpt lat="27.8144633" lon="104.2707223"><ele>1887.94</ele><time>2026-07-13T19:32:23.000Z</time></trkpt>
        <trkpt lat="27.8145337" lon="104.270772"><ele>1888.1</ele><time>2026-07-13T19:32:55.000Z</time></trkpt>
        <trkpt lat="27.8146126" lon="104.2708247"><ele>1887.01</ele><time>2026-07-13T19:33:05.000Z</time></trkpt>
        <trkpt lat="27.8146764" lon="104.2708892"><ele>1885.85</ele><time>2026-07-13T19:33:15.000Z</time></trkpt>
        <trkpt lat="27.8147445" lon="104.2709644"><ele>1885.41</ele><time>2026-07-13T19:33:29.000Z</time></trkpt>
        <trkpt lat="27.8148146" lon="104.2710441"><ele>1884.84</ele><time>2026-07-13T19:33:45.000Z</time></trkpt>
        <trkpt lat="27.8148652" lon="104.2711441"><ele>1884.74</ele><time>2026-07-13T19:33:57.000Z</time></trkpt>
        <trkpt lat="27.8148867" lon="104.271254"><ele>1884.67</ele><time>2026-07-13T19:34:07.000Z</time></trkpt>
        <trkpt lat="27.8149458" lon="104.271331"><ele>1885.23</ele><time>2026-07-13T19:34:23.000Z</time></trkpt>
        <trkpt lat="27.8150435" lon="104.2713673"><ele>1886.67</ele><time>2026-07-13T19:34:35.000Z</time></trkpt>
        <trkpt lat="27.8151518" lon="104.2713595"><ele>1887.63</ele><time>2026-07-13T19:34:45.000Z</time></trkpt>
        <trkpt lat="27.8152547" lon="104.2713382"><ele>1888.02</ele><time>2026-07-13T19:34:55.000Z</time></trkpt>
        <trkpt lat="27.8153515" lon="104.2713096"><ele>1888.56</ele><time>2026-07-13T19:35:05.000Z</time></trkpt>
        <trkpt lat="27.8154451" lon="104.271324"><ele>1888.89</ele><time>2026-07-13T19:35:15.000Z</time></trkpt>
        <trkpt lat="27.8155418" lon="104.2713398"><ele>1889.01</ele><time>2026-07-13T19:35:31.000Z</time></trkpt>
        <trkpt lat="27.8156283" lon="104.2713145"><ele>1890.09</ele><time>2026-07-13T19:35:49.000Z</time></trkpt>
        <trkpt lat="27.8157122" lon="104.2712549"><ele>1892.11</ele><time>2026-07-13T19:36:17.000Z</time></trkpt>
        <trkpt lat="27.8157995" lon="104.2712406"><ele>1894.28</ele><time>2026-07-13T19:36:29.000Z</time></trkpt>
        <trkpt lat="27.8158896" lon="104.2711974"><ele>1895.32</ele><time>2026-07-13T19:36:55.000Z</time></trkpt>
        <trkpt lat="27.8159798" lon="104.2711885"><ele>1897.58</ele><time>2026-07-13T19:37:07.000Z</time></trkpt>
        <trkpt lat="27.8160648" lon="104.2712184"><ele>1898.79</ele><time>2026-07-13T19:37:31.000Z</time></trkpt>
        <trkpt lat="27.8161584" lon="104.2712087"><ele>1898.65</ele><time>2026-07-13T19:37:55.000Z</time></trkpt>
        <trkpt lat="27.8162548" lon="104.2711761"><ele>1898.69</ele><time>2026-07-13T19:38:09.000Z</time></trkpt>
        <trkpt lat="27.8163513" lon="104.2711464"><ele>1898.91</ele><time>2026-07-13T19:38:21.000Z</time></trkpt>
        <trkpt lat="27.8164449" lon="104.2711648"><ele>1897.81</ele><time>2026-07-13T19:38:33.000Z</time></trkpt>
        <trkpt lat="27.8165277" lon="104.2712131"><ele>1896.5</ele><time>2026-07-13T19:38:45.000Z</time></trkpt>
        <trkpt lat="27.8166139" lon="104.2712468"><ele>1895.06</ele><time>2026-07-13T19:39:01.000Z</time></trkpt>
        <trkpt lat="27.8166994" lon="104.2712212"><ele>1893.96</ele><time>2026-07-13T19:39:15.000Z</time></trkpt>
        <trkpt lat="27.8167804" lon="104.2711662"><ele>1892.85</ele><time>2026-07-13T19:39:29.000Z</time></trkpt>
        <trkpt lat="27.8168668" lon="104.2711871"><ele>1892.99</ele><time>2026-07-13T19:39:41.000Z</time></trkpt>
        <trkpt lat="27.8169478" lon="104.271239"><ele>1891.98</ele><time>2026-07-13T19:39:53.000Z</time></trkpt>
        <trkpt lat="27.8170341" lon="104.2712841"><ele>1892.23</ele><time>2026-07-13T19:40:05.000Z</time></trkpt>
        <trkpt lat="27.8171295" lon="104.2712828"><ele>1892.87</ele><time>2026-07-13T19:40:17.000Z</time></trkpt>
        <trkpt lat="27.8172225" lon="104.2712954"><ele>1893.08</ele><time>2026-07-13T19:40:31.000Z</time></trkpt>
        <trkpt lat="27.8173118" lon="104.2713354"><ele>1893.01</ele><time>2026-07-13T19:40:45.000Z</time></trkpt>
        <trkpt lat="27.8173955" lon="104.2713042"><ele>1892.67</ele><time>2026-07-13T19:41:07.000Z</time></trkpt>
        <trkpt lat="27.8174786" lon="104.271262"><ele>1893.41</ele><time>2026-07-13T19:41:21.000Z</time></trkpt>
        <trkpt lat="27.8175718" lon="104.2712349"><ele>1894.2</ele><time>2026-07-13T19:41:33.000Z</time></trkpt>
        <trkpt lat="27.8176649" lon="104.271225"><ele>1894.63</ele><time>2026-07-13T19:41:45.000Z</time></trkpt>
        <trkpt lat="27.8177612" lon="104.2712451"><ele>1894.83</ele><time>2026-07-13T19:41:57.000Z</time></trkpt>
        <trkpt lat="27.8178555" lon="104.2712672"><ele>1894.91</ele><time>2026-07-13T19:42:09.000Z</time></trkpt>
        <trkpt lat="27.8179099" lon="104.2712647"><ele>1895.31</ele><time>2026-07-13T19:42:15.000Z</time></trkpt>
        <trkpt lat="27.8178499" lon="104.2712335"><ele>1895.71</ele><time>2026-07-13T19:42:35.000Z</time></trkpt>
        <trkpt lat="27.8177505" lon="104.2712216"><ele>1896.25</ele><time>2026-07-13T19:43:07.000Z</time></trkpt>
        <trkpt lat="27.8176445" lon="104.2712996"><ele>1896.15</ele><time>2026-07-13T19:47:17.000Z</time></trkpt>
        <trkpt lat="27.8175653" lon="104.2712472"><ele>1896.23</ele><time>2026-07-13T19:50:07.000Z</time></trkpt>
        <trkpt lat="27.8176569" lon="104.2712616"><ele>1896.14</ele><time>2026-07-13T19:51:25.000Z</time></trkpt>
        <trkpt lat="27.81775" lon="104.271261"><ele>1895.27</ele><time>2026-07-13T19:52:33.000Z</time></trkpt>
        <trkpt lat="27.8178555" lon="104.2712796"><ele>1894.59</ele><time>2026-07-13T19:52:47.000Z</time></trkpt>
        <trkpt lat="27.8179578" lon="104.2712538"><ele>1894.1</ele><time>2026-07-13T19:52:59.000Z</time></trkpt>
        <trkpt lat="27.8180519" lon="104.2712226"><ele>1893.64</ele><time>2026-07-13T19:53:11.000Z</time></trkpt>
        <trkpt lat="27.8181369" lon="104.2711748"><ele>1892.78</ele><time>2026-07-13T19:53:23.000Z</time></trkpt>
        <trkpt lat="27.8182337" lon="104.2711432"><ele>1892.6</ele><time>2026-07-13T19:53:35.000Z</time></trkpt>
        <trkpt lat="27.8183275" lon="104.2711111"><ele>1892.45</ele><time>2026-07-13T19:53:47.000Z</time></trkpt>
        <trkpt lat="27.8184223" lon="104.2710655"><ele>1892.62</ele><time>2026-07-13T19:54:01.000Z</time></trkpt>
        <trkpt lat="27.8185064" lon="104.2710049"><ele>1892.96</ele><time>2026-07-13T19:54:15.000Z</time></trkpt>
        <trkpt lat="27.8185685" lon="104.2709164"><ele>1892.98</ele><time>2026-07-13T19:54:29.000Z</time></trkpt>
        <trkpt lat="27.8186391" lon="104.2708456"><ele>1893.86</ele><time>2026-07-13T19:54:41.000Z</time></trkpt>
        <trkpt lat="27.8187046" lon="104.270763"><ele>1894.48</ele><time>2026-07-13T19:54:55.000Z</time></trkpt>
        <trkpt lat="27.8187696" lon="104.2706762"><ele>1895.73</ele><time>2026-07-13T19:55:19.000Z</time></trkpt>
        <trkpt lat="27.8188047" lon="104.2705737"><ele>1896.5</ele><time>2026-07-13T19:55:31.000Z</time></trkpt>
        <trkpt lat="27.8188717" lon="104.2704963"><ele>1896.6</ele><time>2026-07-13T19:55:43.000Z</time></trkpt>
        <trkpt lat="27.8189675" lon="104.2704832"><ele>1896.04</ele><time>2026-07-13T19:56:01.000Z</time></trkpt>
        <trkpt lat="27.8190724" lon="104.2704739"><ele>1895.41</ele><time>2026-07-13T19:56:11.000Z</time></trkpt>
        <trkpt lat="27.819176" lon="104.2704792"><ele>1895.78</ele><time>2026-07-13T19:56:23.000Z</time></trkpt>
        <trkpt lat="27.8192661" lon="104.2704532"><ele>1895.97</ele><time>2026-07-13T19:56:35.000Z</time></trkpt>
        <trkpt lat="27.8193547" lon="104.2704235"><ele>1895.13</ele><time>2026-07-13T19:56:47.000Z</time></trkpt>
        <trkpt lat="27.819414" lon="104.2703494"><ele>1895.16</ele><time>2026-07-13T19:57:17.000Z</time></trkpt>
        <trkpt lat="27.819431" lon="104.2702456"><ele>1894.95</ele><time>2026-07-13T19:57:27.000Z</time></trkpt>
        <trkpt lat="27.8194368" lon="104.2701348"><ele>1894.58</ele><time>2026-07-13T19:57:41.000Z</time></trkpt>
        <trkpt lat="27.8195056" lon="104.2700748"><ele>1895.24</ele><time>2026-07-13T19:58:07.000Z</time></trkpt>
        <trkpt lat="27.8196045" lon="104.2700511"><ele>1896.47</ele><time>2026-07-13T19:58:19.000Z</time></trkpt>
        <trkpt lat="27.8197072" lon="104.2700902"><ele>1897.37</ele><time>2026-07-13T19:58:31.000Z</time></trkpt>
        <trkpt lat="27.8197982" lon="104.2701445"><ele>1897.75</ele><time>2026-07-13T19:58:41.000Z</time></trkpt>
        <trkpt lat="27.8198849" lon="104.2701924"><ele>1898.04</ele><time>2026-07-13T19:58:53.000Z</time></trkpt>
        <trkpt lat="27.8199721" lon="104.2702435"><ele>1898.45</ele><time>2026-07-13T19:59:07.000Z</time></trkpt>
        <trkpt lat="27.8200701" lon="104.2702559"><ele>1898.6</ele><time>2026-07-13T19:59:21.000Z</time></trkpt>
        <trkpt lat="27.8201484" lon="104.2702262"><ele>1898.52</ele><time>2026-07-13T19:59:33.000Z</time></trkpt>
        <trkpt lat="27.8202379" lon="104.2701913"><ele>1898.46</ele><time>2026-07-13T20:00:01.000Z</time></trkpt>
        <trkpt lat="27.8203335" lon="104.2701636"><ele>1898.8</ele><time>2026-07-13T20:00:21.000Z</time></trkpt>
        <trkpt lat="27.820431" lon="104.2701703"><ele>1899.54</ele><time>2026-07-13T20:00:37.000Z</time></trkpt>
        <trkpt lat="27.8205268" lon="104.2701665"><ele>1900.44</ele><time>2026-07-13T20:00:55.000Z</time></trkpt>
        <trkpt lat="27.8206207" lon="104.2701568"><ele>1901.17</ele><time>2026-07-13T20:01:19.000Z</time></trkpt>
        <trkpt lat="27.8206769" lon="104.270248"><ele>1902.03</ele><time>2026-07-13T20:02:49.000Z</time></trkpt>
        <trkpt lat="27.8207606" lon="104.2702976"><ele>1901.52</ele><time>2026-07-13T20:03:19.000Z</time></trkpt>
        <trkpt lat="27.8208581" lon="104.2702948"><ele>1901.93</ele><time>2026-07-13T20:03:31.000Z</time></trkpt>
        <trkpt lat="27.820954" lon="104.2702732"><ele>1901.92</ele><time>2026-07-13T20:03:43.000Z</time></trkpt>
        <trkpt lat="27.8210375" lon="104.270221"><ele>1902.08</ele><time>2026-07-13T20:04:05.000Z</time></trkpt>
        <trkpt lat="27.8211181" lon="104.2701559"><ele>1902.07</ele><time>2026-07-13T20:04:21.000Z</time></trkpt>
        <trkpt lat="27.8211921" lon="104.2700858"><ele>1901.39</ele><time>2026-07-13T20:04:35.000Z</time></trkpt>
        <trkpt lat="27.8212795" lon="104.2700448"><ele>1900.36</ele><time>2026-07-13T20:05:09.000Z</time></trkpt>
        <trkpt lat="27.8213673" lon="104.270006"><ele>1900.14</ele><time>2026-07-13T20:05:23.000Z</time></trkpt>
        <trkpt lat="27.8214419" lon="104.2699449"><ele>1900.18</ele><time>2026-07-13T20:12:09.000Z</time></trkpt>
        <trkpt lat="27.8215255" lon="104.2698743"><ele>1900.36</ele><time>2026-07-13T20:12:41.000Z</time></trkpt>
        <trkpt lat="27.8216171" lon="104.2698712"><ele>1900.44</ele><time>2026-07-13T20:12:53.000Z</time></trkpt>
        <trkpt lat="27.8217105" lon="104.2698899"><ele>1900.71</ele><time>2026-07-13T20:13:07.000Z</time></trkpt>
        <trkpt lat="27.8217856" lon="104.2699514"><ele>1900.81</ele><time>2026-07-13T20:13:39.000Z</time></trkpt>
        <trkpt lat="27.821855" lon="104.270028"><ele>1901.69</ele><time>2026-07-13T20:13:55.000Z</time></trkpt>
        <trkpt lat="27.8219253" lon="104.2700045"><ele>1902.82</ele><time>2026-07-13T20:14:09.000Z</time></trkpt>
        <trkpt lat="27.8220133" lon="104.2700188"><ele>1902.61</ele><time>2026-07-13T20:14:27.000Z</time></trkpt>
        <trkpt lat="27.8220437" lon="104.2700409"><ele>1902.6</ele><time>2026-07-13T20:14:37.000Z</time></trkpt>
        <trkpt lat="27.8221104" lon="104.270088"><ele>1901.4</ele><time>2026-07-13T20:20:23.000Z</time></trkpt>
        <trkpt lat="27.8221963" lon="104.2701473"><ele>1900.5</ele><time>2026-07-13T20:20:37.000Z</time></trkpt>
        <trkpt lat="27.8222022" lon="104.2702466"><ele>1901.44</ele><time>2026-07-13T20:20:57.000Z</time></trkpt>
        <trkpt lat="27.8222799" lon="104.2702938"><ele>1900.8</ele><time>2026-07-13T20:21:11.000Z</time></trkpt>
        <trkpt lat="27.8223625" lon="104.2703374"><ele>1900.79</ele><time>2026-07-13T20:21:43.000Z</time></trkpt>
        <trkpt lat="27.8224575" lon="104.2703352"><ele>1899.97</ele><time>2026-07-13T20:22:05.000Z</time></trkpt>
        <trkpt lat="27.8225374" lon="104.2703865"><ele>1897.72</ele><time>2026-07-13T20:22:31.000Z</time></trkpt>
        <trkpt lat="27.8225891" lon="104.2704758"><ele>1894.38</ele><time>2026-07-13T20:22:49.000Z</time></trkpt>
        <trkpt lat="27.8226254" lon="104.2705805"><ele>1893.66</ele><time>2026-07-13T20:23:13.000Z</time></trkpt>
        <trkpt lat="27.8226673" lon="104.2706834"><ele>1890.57</ele><time>2026-07-13T20:23:31.000Z</time></trkpt>
        <trkpt lat="27.8227289" lon="104.2707701"><ele>1889.56</ele><time>2026-07-13T20:23:53.000Z</time></trkpt>
        <trkpt lat="27.8227777" lon="104.2708626"><ele>1887.24</ele><time>2026-07-13T20:24:21.000Z</time></trkpt>
        <trkpt lat="27.8228591" lon="104.2708588"><ele>1885.6</ele><time>2026-07-13T20:24:41.000Z</time></trkpt>
        <trkpt lat="27.8229408" lon="104.2708883"><ele>1885.81</ele><time>2026-07-13T20:25:05.000Z</time></trkpt>
        <trkpt lat="27.8230352" lon="104.2708853"><ele>1885.05</ele><time>2026-07-13T20:25:23.000Z</time></trkpt>
        <trkpt lat="27.8231388" lon="104.2708494"><ele>1884.39</ele><time>2026-07-13T20:25:35.000Z</time></trkpt>
        <trkpt lat="27.8232092" lon="104.2708223"><ele>1884.05</ele><time>2026-07-13T20:25:45.000Z</time></trkpt>
        <trkpt lat="27.8232864" lon="104.2708502"><ele>1883.63</ele><time>2026-07-13T20:26:33.000Z</time></trkpt>
        <trkpt lat="27.8233727" lon="104.2708541"><ele>1883.36</ele><time>2026-07-13T20:26:47.000Z</time></trkpt>
        <trkpt lat="27.823461" lon="104.2708913"><ele>1884.03</ele><time>2026-07-13T20:27:25.000Z</time></trkpt>
        <trkpt lat="27.8235524" lon="104.2708956"><ele>1883.05</ele><time>2026-07-13T20:27:41.000Z</time></trkpt>
        <trkpt lat="27.8236477" lon="104.2708922"><ele>1881.21</ele><time>2026-07-13T20:28:03.000Z</time></trkpt>
        <trkpt lat="27.8237434" lon="104.2709041"><ele>1882.12</ele><time>2026-07-13T20:28:37.000Z</time></trkpt>
        <trkpt lat="27.8238411" lon="104.2709013"><ele>1883.17</ele><time>2026-07-13T20:29:01.000Z</time></trkpt>
        <trkpt lat="27.8239341" lon="104.2709155"><ele>1882.31</ele><time>2026-07-13T20:29:19.000Z</time></trkpt>
        <trkpt lat="27.8240215" lon="104.2708881"><ele>1882.24</ele><time>2026-07-13T20:29:39.000Z</time></trkpt>
        <trkpt lat="27.8241127" lon="104.2709147"><ele>1880.89</ele><time>2026-07-13T20:30:01.000Z</time></trkpt>
        <trkpt lat="27.8242089" lon="104.2709448"><ele>1880.2</ele><time>2026-07-13T20:30:29.000Z</time></trkpt>
        <trkpt lat="27.8243017" lon="104.2709569"><ele>1879.5</ele><time>2026-07-13T20:30:57.000Z</time></trkpt>
        <trkpt lat="27.8243867" lon="104.2709014"><ele>1877.95</ele><time>2026-07-13T20:31:53.000Z</time></trkpt>
        <trkpt lat="27.8244814" lon="104.2708698"><ele>1876.05</ele><time>2026-07-13T20:32:29.000Z</time></trkpt>
        <trkpt lat="27.8245723" lon="104.2708856"><ele>1875.2</ele><time>2026-07-13T20:32:55.000Z</time></trkpt>
        <trkpt lat="27.8246451" lon="104.2708388"><ele>1874.2</ele><time>2026-07-13T20:33:25.000Z</time></trkpt>
        <trkpt lat="27.8247293" lon="104.2708332"><ele>1874.29</ele><time>2026-07-13T20:33:43.000Z</time></trkpt>
        <trkpt lat="27.8248175" lon="104.2708579"><ele>1875.23</ele><time>2026-07-13T20:34:13.000Z</time></trkpt>
        <trkpt lat="27.8249043" lon="104.2708212"><ele>1873.29</ele><time>2026-07-13T20:34:35.000Z</time></trkpt>
        <trkpt lat="27.8249863" lon="104.270769"><ele>1870.22</ele><time>2026-07-13T20:35:03.000Z</time></trkpt>
        <trkpt lat="27.8250749" lon="104.270756"><ele>1868.21</ele><time>2026-07-13T20:35:27.000Z</time></trkpt>
        <trkpt lat="27.825168" lon="104.2707574"><ele>1867.27</ele><time>2026-07-13T20:35:53.000Z</time></trkpt>
        <trkpt lat="27.8252442" lon="104.2707097"><ele>1868.4</ele><time>2026-07-13T20:36:17.000Z</time></trkpt>
        <trkpt lat="27.825334" lon="104.2706888"><ele>1868.46</ele><time>2026-07-13T20:36:39.000Z</time></trkpt>
        <trkpt lat="27.8254252" lon="104.2706895"><ele>1869.4</ele><time>2026-07-13T20:36:57.000Z</time></trkpt>
        <trkpt lat="27.825521" lon="104.2707148"><ele>1869.35</ele><time>2026-07-13T20:37:23.000Z</time></trkpt>
        <trkpt lat="27.8256003" lon="104.2707718"><ele>1869.15</ele><time>2026-07-13T20:37:47.000Z</time></trkpt>
        <trkpt lat="27.8256885" lon="104.2708035"><ele>1867.32</ele><time>2026-07-13T20:37:59.000Z</time></trkpt>
        <trkpt lat="27.8257767" lon="104.2708435"><ele>1867.23</ele><time>2026-07-13T20:38:39.000Z</time></trkpt>
        <trkpt lat="27.8258501" lon="104.2709084"><ele>1866.93</ele><time>2026-07-13T20:38:55.000Z</time></trkpt>
        <trkpt lat="27.8259289" lon="104.2708825"><ele>1866.73</ele><time>2026-07-13T20:39:29.000Z</time></trkpt>
        <trkpt lat="27.8259882" lon="104.2708032"><ele>1865.37</ele><time>2026-07-13T20:39:47.000Z</time></trkpt>
        <trkpt lat="27.8260701" lon="104.2707515"><ele>1867.02</ele><time>2026-07-13T20:40:11.000Z</time></trkpt>
        <trkpt lat="27.8261525" lon="104.2707838"><ele>1867.31</ele><time>2026-07-13T20:40:43.000Z</time></trkpt>
        <trkpt lat="27.8262337" lon="104.270849"><ele>1864.11</ele><time>2026-07-13T20:41:09.000Z</time></trkpt>
        <trkpt lat="27.8262725" lon="104.2709539"><ele>1860.83</ele><time>2026-07-13T20:41:31.000Z</time></trkpt>
        <trkpt lat="27.8262934" lon="104.2710643"><ele>1858.68</ele><time>2026-07-13T20:41:51.000Z</time></trkpt>
        <trkpt lat="27.8263634" lon="104.2710978"><ele>1858.02</ele><time>2026-07-13T20:42:15.000Z</time></trkpt>
        <trkpt lat="27.826437" lon="104.2711525"><ele>1855.99</ele><time>2026-07-13T20:42:33.000Z</time></trkpt>
        <trkpt lat="27.826475" lon="104.2711896"><ele>1855.57</ele><time>2026-07-13T20:42:41.000Z</time></trkpt>
        <trkpt lat="27.82653" lon="104.2712571"><ele>1856.21</ele><time>2026-07-13T20:43:11.000Z</time></trkpt>
        <trkpt lat="27.8266069" lon="104.271311"><ele>1855.17</ele><time>2026-07-13T20:43:39.000Z</time></trkpt>
        <trkpt lat="27.826698" lon="104.2713408"><ele>1853.93</ele><time>2026-07-13T20:44:03.000Z</time></trkpt>
        <trkpt lat="27.8267868" lon="104.2713938"><ele>1852.61</ele><time>2026-07-13T20:44:23.000Z</time></trkpt>
        <trkpt lat="27.826881" lon="104.2714121"><ele>1851.71</ele><time>2026-07-13T20:44:59.000Z</time></trkpt>
        <trkpt lat="27.8269756" lon="104.2714111"><ele>1850.19</ele><time>2026-07-13T21:09:30.000Z</time></trkpt>
        <trkpt lat="27.8270631" lon="104.2714698"><ele>1848.08</ele><time>2026-07-13T21:10:00.000Z</time></trkpt>
        <trkpt lat="27.8271532" lon="104.2714948"><ele>1846.5</ele><time>2026-07-13T21:10:32.000Z</time></trkpt>
        <trkpt lat="27.8272416" lon="104.271535"><ele>1843.44</ele><time>2026-07-13T21:11:06.000Z</time></trkpt>
        <trkpt lat="27.8273003" lon="104.2716148"><ele>1841.36</ele><time>2026-07-13T21:11:40.000Z</time></trkpt>
        <trkpt lat="27.8273175" lon="104.2716588"><ele>1839.58</ele><time>2026-07-13T21:11:48.000Z</time></trkpt>
        <trkpt lat="27.8273762" lon="104.271706"><ele>1839.14</ele><time>2026-07-13T21:12:14.000Z</time></trkpt>
        <trkpt lat="27.8274426" lon="104.2717684"><ele>1840.6</ele><time>2026-07-13T21:12:32.000Z</time></trkpt>
        <trkpt lat="27.82749" lon="104.2718596"><ele>1841.92</ele><time>2026-07-13T21:12:50.000Z</time></trkpt>
        <trkpt lat="27.8275809" lon="104.2718807"><ele>1840.37</ele><time>2026-07-13T21:13:12.000Z</time></trkpt>
        <trkpt lat="27.8276738" lon="104.2719102"><ele>1840.5</ele><time>2026-07-13T21:13:32.000Z</time></trkpt>
        <trkpt lat="27.8277542" lon="104.27196"><ele>1839.65</ele><time>2026-07-13T21:13:48.000Z</time></trkpt>
        <trkpt lat="27.8278279" lon="104.2720288"><ele>1837.97</ele><time>2026-07-13T21:14:04.000Z</time></trkpt>
        <trkpt lat="27.8279092" lon="104.2721066"><ele>1837.94</ele><time>2026-07-13T21:14:22.000Z</time></trkpt>
        <trkpt lat="27.827949" lon="104.2721303"><ele>1835.28</ele><time>2026-07-13T21:14:28.000Z</time></trkpt>
        <trkpt lat="27.8280227" lon="104.2721592"><ele>1833.56</ele><time>2026-07-13T21:14:48.000Z</time></trkpt>
        <trkpt lat="27.8281179" lon="104.2721765"><ele>1831.91</ele><time>2026-07-13T21:15:06.000Z</time></trkpt>
        <trkpt lat="27.8282122" lon="104.2721973"><ele>1829.78</ele><time>2026-07-13T21:15:24.000Z</time></trkpt>
        <trkpt lat="27.8283088" lon="104.2722083"><ele>1828.18</ele><time>2026-07-13T21:16:00.000Z</time></trkpt>
        <trkpt lat="27.8284057" lon="104.2721805"><ele>1827.43</ele><time>2026-07-13T21:16:14.000Z</time></trkpt>
        <trkpt lat="27.8285059" lon="104.272191"><ele>1827.67</ele><time>2026-07-13T21:16:30.000Z</time></trkpt>
        <trkpt lat="27.8285946" lon="104.2722273"><ele>1827</ele><time>2026-07-13T21:16:44.000Z</time></trkpt>
        <trkpt lat="27.8286879" lon="104.2722606"><ele>1826.01</ele><time>2026-07-13T21:17:00.000Z</time></trkpt>
        <trkpt lat="27.8287812" lon="104.2722691"><ele>1824.29</ele><time>2026-07-13T21:17:18.000Z</time></trkpt>
        <trkpt lat="27.8288607" lon="104.2723192"><ele>1822.93</ele><time>2026-07-13T21:17:36.000Z</time></trkpt>
        <trkpt lat="27.8289395" lon="104.2723726"><ele>1822.77</ele><time>2026-07-13T21:17:54.000Z</time></trkpt>
        <trkpt lat="27.8289679" lon="104.2724091"><ele>1821.86</ele><time>2026-07-13T21:18:06.000Z</time></trkpt>
        <trkpt lat="27.8290373" lon="104.272391"><ele>1821.89</ele><time>2026-07-13T21:18:30.000Z</time></trkpt>
        <trkpt lat="27.8291224" lon="104.2724047"><ele>1821.48</ele><time>2026-07-13T21:18:44.000Z</time></trkpt>
        <trkpt lat="27.8292188" lon="104.272415"><ele>1821.55</ele><time>2026-07-13T21:19:00.000Z</time></trkpt>
        <trkpt lat="27.8293105" lon="104.2724503"><ele>1820.31</ele><time>2026-07-13T21:19:20.000Z</time></trkpt>
        <trkpt lat="27.8293811" lon="104.2724658"><ele>1819.14</ele><time>2026-07-13T21:19:34.000Z</time></trkpt>
        <trkpt lat="27.829469" lon="104.2724834"><ele>1819.26</ele><time>2026-07-13T21:19:50.000Z</time></trkpt>
        <trkpt lat="27.8295579" lon="104.2724493"><ele>1817.85</ele><time>2026-07-13T21:20:02.000Z</time></trkpt>
        <trkpt lat="27.8296496" lon="104.2723964"><ele>1816.39</ele><time>2026-07-13T21:20:18.000Z</time></trkpt>
        <trkpt lat="27.8297427" lon="104.2723832"><ele>1815.96</ele><time>2026-07-13T21:20:36.000Z</time></trkpt>
        <trkpt lat="27.8298346" lon="104.2723911"><ele>1814.71</ele><time>2026-07-13T21:20:50.000Z</time></trkpt>
        <trkpt lat="27.8299288" lon="104.2724328"><ele>1815.02</ele><time>2026-07-13T21:21:22.000Z</time></trkpt>
        <trkpt lat="27.8299976" lon="104.2725119"><ele>1815.99</ele><time>2026-07-13T21:21:40.000Z</time></trkpt>
        <trkpt lat="27.8300542" lon="104.2725956"><ele>1816.12</ele><time>2026-07-13T21:22:04.000Z</time></trkpt>
        <trkpt lat="27.83013" lon="104.2726613"><ele>1815.25</ele><time>2026-07-13T21:22:34.000Z</time></trkpt>
        <trkpt lat="27.8301869" lon="104.2727431"><ele>1814.01</ele><time>2026-07-13T21:25:04.000Z</time></trkpt>
        <trkpt lat="27.8301145" lon="104.2726785"><ele>1812.39</ele><time>2026-07-13T21:25:38.000Z</time></trkpt>
        <trkpt lat="27.8302178" lon="104.2726952"><ele>1811.94</ele><time>2026-07-13T21:27:12.000Z</time></trkpt>
        <trkpt lat="27.8301281" lon="104.2726803"><ele>1812.84</ele><time>2026-07-13T21:27:46.000Z</time></trkpt>
        <trkpt lat="27.8301844" lon="104.2727623"><ele>1810.83</ele><time>2026-07-13T21:29:54.000Z</time></trkpt>
        <trkpt lat="27.8302748" lon="104.272773"><ele>1810.24</ele><time>2026-07-13T21:30:04.000Z</time></trkpt>
        <trkpt lat="27.8303654" lon="104.2727377"><ele>1809.73</ele><time>2026-07-13T21:30:14.000Z</time></trkpt>
        <trkpt lat="27.8304456" lon="104.2726865"><ele>1808.56</ele><time>2026-07-13T21:30:26.000Z</time></trkpt>
        <trkpt lat="27.8305319" lon="104.2726587"><ele>1807.6</ele><time>2026-07-13T21:30:42.000Z</time></trkpt>
        <trkpt lat="27.8305982" lon="104.2725899"><ele>1808.16</ele><time>2026-07-13T21:31:08.000Z</time></trkpt>
        <trkpt lat="27.8306821" lon="104.2725821"><ele>1805.74</ele><time>2026-07-13T21:31:20.000Z</time></trkpt>
        <trkpt lat="27.830776" lon="104.2725993"><ele>1804.78</ele><time>2026-07-13T21:31:34.000Z</time></trkpt>
        <trkpt lat="27.8308744" lon="104.2726267"><ele>1803.89</ele><time>2026-07-13T21:31:52.000Z</time></trkpt>
        <trkpt lat="27.8309713" lon="104.2726082"><ele>1802.16</ele><time>2026-07-13T21:32:06.000Z</time></trkpt>
        <trkpt lat="27.8310643" lon="104.272631"><ele>1802.72</ele><time>2026-07-13T21:32:30.000Z</time></trkpt>
        <trkpt lat="27.831157" lon="104.2726713"><ele>1801.47</ele><time>2026-07-13T21:32:52.000Z</time></trkpt>
        <trkpt lat="27.8312526" lon="104.2726984"><ele>1799.23</ele><time>2026-07-13T21:33:08.000Z</time></trkpt>
        <trkpt lat="27.8313503" lon="104.2726997"><ele>1796.67</ele><time>2026-07-13T21:33:54.000Z</time></trkpt>
        <trkpt lat="27.8314414" lon="104.2727168"><ele>1796.69</ele><time>2026-07-13T21:34:14.000Z</time></trkpt>
        <trkpt lat="27.8315255" lon="104.2727582"><ele>1796.6</ele><time>2026-07-13T21:34:32.000Z</time></trkpt>
        <trkpt lat="27.8316091" lon="104.2727366"><ele>1796.2</ele><time>2026-07-13T21:34:50.000Z</time></trkpt>
        <trkpt lat="27.8316827" lon="104.272782"><ele>1796.74</ele><time>2026-07-13T21:35:04.000Z</time></trkpt>
        <trkpt lat="27.8317569" lon="104.2728467"><ele>1799.83</ele><time>2026-07-13T21:35:24.000Z</time></trkpt>
        <trkpt lat="27.8318462" lon="104.2728702"><ele>1801.28</ele><time>2026-07-13T21:35:54.000Z</time></trkpt>
        <trkpt lat="27.8319284" lon="104.2729133"><ele>1799.47</ele><time>2026-07-13T21:36:16.000Z</time></trkpt>
        <trkpt lat="27.8319946" lon="104.272986"><ele>1799.89</ele><time>2026-07-13T21:36:32.000Z</time></trkpt>
        <trkpt lat="27.8320685" lon="104.2730573"><ele>1798.66</ele><time>2026-07-13T21:37:00.000Z</time></trkpt>
        <trkpt lat="27.8321614" lon="104.2730781"><ele>1798.85</ele><time>2026-07-13T21:37:38.000Z</time></trkpt>
        <trkpt lat="27.8322542" lon="104.2730823"><ele>1797.3</ele><time>2026-07-13T21:37:56.000Z</time></trkpt>
        <trkpt lat="27.8323472" lon="104.2730787"><ele>1796.9</ele><time>2026-07-13T21:38:06.000Z</time></trkpt>
        <trkpt lat="27.8324141" lon="104.2731005"><ele>1795.97</ele><time>2026-07-13T21:38:18.000Z</time></trkpt>
        <trkpt lat="27.8324904" lon="104.2731547"><ele>1797.2</ele><time>2026-07-13T21:38:36.000Z</time></trkpt>
        <trkpt lat="27.8325726" lon="104.2731994"><ele>1796.41</ele><time>2026-07-13T21:38:56.000Z</time></trkpt>
        <trkpt lat="27.8326573" lon="104.2731672"><ele>1796.25</ele><time>2026-07-13T21:39:12.000Z</time></trkpt>
        <trkpt lat="27.8327501" lon="104.2731818"><ele>1796.05</ele><time>2026-07-13T21:39:32.000Z</time></trkpt>
        <trkpt lat="27.8328431" lon="104.2731986"><ele>1794.57</ele><time>2026-07-13T21:39:48.000Z</time></trkpt>
        <trkpt lat="27.8329318" lon="104.2732331"><ele>1792.92</ele><time>2026-07-13T21:40:14.000Z</time></trkpt>
        <trkpt lat="27.8330239" lon="104.2732516"><ele>1791.05</ele><time>2026-07-13T21:40:28.000Z</time></trkpt>
        <trkpt lat="27.8331213" lon="104.2732742"><ele>1790.12</ele><time>2026-07-13T21:40:46.000Z</time></trkpt>
        <trkpt lat="27.8331839" lon="104.2732132"><ele>1790.68</ele><time>2026-07-13T21:41:08.000Z</time></trkpt>
        <trkpt lat="27.8332725" lon="104.2731665"><ele>1790.78</ele><time>2026-07-13T21:41:18.000Z</time></trkpt>
        <trkpt lat="27.8333685" lon="104.2731621"><ele>1789.44</ele><time>2026-07-13T21:41:32.000Z</time></trkpt>
        <trkpt lat="27.8334613" lon="104.2731842"><ele>1788.64</ele><time>2026-07-13T21:41:46.000Z</time></trkpt>
        <trkpt lat="27.8335589" lon="104.2732121"><ele>1788.28</ele><time>2026-07-13T21:42:00.000Z</time></trkpt>
        <trkpt lat="27.83365" lon="104.2732019"><ele>1788.34</ele><time>2026-07-13T21:42:12.000Z</time></trkpt>
        <trkpt lat="27.8337348" lon="104.2732262"><ele>1787.67</ele><time>2026-07-13T21:42:28.000Z</time></trkpt>
        <trkpt lat="27.8338226" lon="104.273256"><ele>1787.42</ele><time>2026-07-13T21:42:40.000Z</time></trkpt>
        <trkpt lat="27.8338893" lon="104.2732893"><ele>1787.36</ele><time>2026-07-13T21:42:50.000Z</time></trkpt>
        <trkpt lat="27.8339769" lon="104.2733074"><ele>1786.98</ele><time>2026-07-13T21:43:18.000Z</time></trkpt>
        <trkpt lat="27.834071" lon="104.2732705"><ele>1787.07</ele><time>2026-07-13T21:43:42.000Z</time></trkpt>
        <trkpt lat="27.8341658" lon="104.2732368"><ele>1787.66</ele><time>2026-07-13T21:43:54.000Z</time></trkpt>
        <trkpt lat="27.8342593" lon="104.273184"><ele>1788.66</ele><time>2026-07-13T21:44:16.000Z</time></trkpt>
        <trkpt lat="27.8342839" lon="104.2731671"><ele>1788.43</ele><time>2026-07-13T21:44:18.000Z</time></trkpt>
        <trkpt lat="27.8343468" lon="104.2731368"><ele>1788.28</ele><time>2026-07-13T21:50:52.000Z</time></trkpt>
        <trkpt lat="27.834263" lon="104.2731813"><ele>1785.99</ele><time>2026-07-13T21:53:24.000Z</time></trkpt>
        <trkpt lat="27.834263" lon="104.2731813"><ele>1785.99</ele><time>2026-07-13T21:54:25.000Z</time></trkpt>
      </trkseg>
  </trk>
</gpx>